TimeCDT,TemperatureF,Dew PointF,Humidity,Sea Level PressureIn,VisibilityMPH,Wind Direction,Wind SpeedMPH,Gust SpeedMPH,PrecipitationIn,Events,Conditions,WindDirDegrees,DateUTC
12:58 AM,74.5,71.8,91,30.03,10.0,South,3.5,-,N/A,,Clear,180,2013-07-19 05:58:00
1:58 AM,74.7,71.6,90,30.02,10.0,South,5.8,-,N/A,,Clear,170,2013-07-19 06:58:00
2:58 AM,74.5,71.4,90,30.02,10.0,South,4.6,-,N/A,,Clear,170,2013-07-19 07:58:00
3:58 AM,74.3,70.3,87,30.01,10.0,Variable,4.6,-,N/A,,Clear,0,2013-07-19 08:58:00
4:58 AM,73.2,70.2,90,30.00,10.0,SSW,4.6,-,N/A,,Clear,200,2013-07-19 09:58:00
5:58 AM,72.5,69.8,91,30.00,10.0,SSW,4.6,-,N/A,,Clear,200,2013-07-19 10:58:00
6:58 AM,72.5,69.8,91,30.01,10.0,South,2.3,-,N/A,,Clear,190,2013-07-19 11:58:00
7:58 AM,77.2,70.9,81,30.01,10.0,SW,4.6,-,N/A,,Clear,220,2013-07-19 12:58:00
8:58 AM,79.7,72.0,77,30.02,10.0,West,4.6,-,N/A,,Mostly Cloudy,260,2013-07-19 13:58:00
9:58 AM,83.3,72.3,69,30.02,10.0,WSW,4.6,-,N/A,,Clear,250,2013-07-19 14:58:00
10:58 AM,86.0,72.5,64,30.02,10.0,Variable,3.5,-,N/A,,Clear,0,2013-07-19 15:58:00
11:58 AM,89.1,72.5,58,30.01,10.0,Variable,4.6,-,N/A,,Clear,0,2013-07-19 16:58:00
12:58 PM,90.5,70.7,52,29.99,10.0,Variable,4.6,-,N/A,,Clear,0,2013-07-19 17:58:00
1:58 PM,92.1,70.7,49,29.96,10.0,Variable,3.5,-,N/A,,Clear,0,2013-07-19 18:58:00
2:58 PM,93.6,67.5,42,29.94,10.0,Variable,1.2,-,N/A,,Clear,0,2013-07-19 19:58:00
3:58 PM,89.1,71.1,55,29.94,10.0,ESE,16.1,25.3,N/A,,Partly Cloudy,120,2013-07-19 20:58:00
4:58 PM,83.1,70.5,66,29.95,10.0,South,8.1,-,N/A,,Clear,190,2013-07-19 21:58:00
5:58 PM,81.9,70.7,69,29.93,10.0,Variable,5.8,-,N/A,,Clear,0,2013-07-19 22:58:00
6:58 PM,83.1,71.6,68,29.92,10.0,Variable,3.5,-,N/A,,Clear,0,2013-07-19 23:58:00
7:58 PM,80.1,72.1,77,29.92,10.0,SSE,5.8,-,N/A,,Clear,160,2013-07-20 00:58:00
8:58 PM,78.1,70.2,77,29.91,10.0,SSW,4.6,-,N/A,,Clear,200,2013-07-20 01:58:00
9:58 PM,77.0,70.5,80,29.94,10.0,Variable,5.8,-,N/A,,Partly Cloudy,0,2013-07-20 02:58:00
10:58 PM,75.7,70.7,84,29.94,10.0,Variable,4.6,-,N/A,,Scattered Clouds,0,2013-07-20 03:58:00
11:58 PM,73.9,70.3,88,29.93,10.0,SSW,3.5,-,N/A,,Clear,210,2013-07-20 04:58:00